sensor_id;sensor_type;location;lat;lon;timestamp;temperature;humidity
32728;DHT22;55292;51.844;19.246;2023-07-30T00:01:37;16.70;99.90
32728;DHT22;55292;51.844;19.246;2023-07-30T00:06:40;16.70;99.90
32728;DHT22;55292;51.844;19.246;2023-07-30T00:11:43;16.80;99.90
32728;DHT22;55292;51.844;19.246;2023-07-30T00:16:45;16.90;99.90
32728;DHT22;55292;51.844;19.246;2023-07-30T00:21:48;16.90;99.90
32728;DHT22;55292;51.844;19.246;2023-07-30T00:26:51;16.80;99.90
32728;DHT22;55292;51.844;19.246;2023-07-30T00:31:54;16.90;99.90
32728;DHT22;55292;51.844;19.246;2023-07-30T00:36:56;17.00;99.90
32728;DHT22;55292;51.844;19.246;2023-07-30T00:41:59;17.00;99.90
32728;DHT22;55292;51.844;19.246;2023-07-30T00:47:02;17.10;99.90
32728;DHT22;55292;51.844;19.246;2023-07-30T00:52:06;17.20;99.90
32728;DHT22;55292;51.844;19.246;2023-07-30T00:57:10;17.20;99.90
32728;DHT22;55292;51.844;19.246;2023-07-30T01:02:13;17.10;99.90
32728;DHT22;55292;51.844;19.246;2023-07-30T01:07:16;17.10;99.90
32728;DHT22;55292;51.844;19.246;2023-07-30T01:12:18;17.10;99.90
32728;DHT22;55292;51.844;19.246;2023-07-30T01:17:22;16.90;99.90
32728;DHT22;55292;51.844;19.246;2023-07-30T01:22:25;16.70;99.90
32728;DHT22;55292;51.844;19.246;2023-07-30T01:27:30;16.80;99.90
32728;DHT22;55292;51.844;19.246;2023-07-30T01:32:34;17.00;99.90
32728;DHT22;55292;51.844;19.246;2023-07-30T01:37:38;17.10;99.90
32728;DHT22;55292;51.844;19.246;2023-07-30T01:42:42;17.20;99.90
32728;DHT22;55292;51.844;19.246;2023-07-30T01:47:45;17.30;99.90
32728;DHT22;55292;51.844;19.246;2023-07-30T01:52:48;17.30;99.90
32728;DHT22;55292;51.844;19.246;2023-07-30T01:57:50;17.30;99.90
32728;DHT22;55292;51.844;19.246;2023-07-30T02:02:53;17.40;99.90
32728;DHT22;55292;51.844;19.246;2023-07-30T02:07:57;17.40;99.90
32728;DHT22;55292;51.844;19.246;2023-07-30T02:13:00;17.40;99.90
32728;DHT22;55292;51.844;19.246;2023-07-30T02:18:03;17.40;99.90
32728;DHT22;55292;51.844;19.246;2023-07-30T02:23:05;17.40;99.90
32728;DHT22;55292;51.844;19.246;2023-07-30T02:28:09;17.50;99.90
32728;DHT22;55292;51.844;19.246;2023-07-30T02:33:16;17.50;99.90
32728;DHT22;55292;51.844;19.246;2023-07-30T02:38:18;17.50;99.90
32728;DHT22;55292;51.844;19.246;2023-07-30T02:43:21;17.50;99.90
32728;DHT22;55292;51.844;19.246;2023-07-30T02:48:24;17.50;99.90
32728;DHT22;55292;51.844;19.246;2023-07-30T02:53:26;17.50;99.90
32728;DHT22;55292;51.844;19.246;2023-07-30T02:58:30;17.50;99.90
32728;DHT22;55292;51.844;19.246;2023-07-30T03:03:34;17.50;99.90
32728;DHT22;55292;51.844;19.246;2023-07-30T03:08:37;17.50;99.90
32728;DHT22;55292;51.844;19.246;2023-07-30T03:13:41;17.50;99.90
32728;DHT22;55292;51.844;19.246;2023-07-30T03:18:43;17.60;99.90
32728;DHT22;55292;51.844;19.246;2023-07-30T03:23:46;17.60;99.90
32728;DHT22;55292;51.844;19.246;2023-07-30T03:28:51;18.10;99.90
32728;DHT22;55292;51.844;19.246;2023-07-30T03:33:54;17.60;99.90
32728;DHT22;55292;51.844;19.246;2023-07-30T03:38:57;17.70;99.90
32728;DHT22;55292;51.844;19.246;2023-07-30T03:44:00;17.60;99.90
32728;DHT22;55292;51.844;19.246;2023-07-30T03:49:03;17.60;99.90
32728;DHT22;55292;51.844;19.246;2023-07-30T03:54:05;17.70;99.90
32728;DHT22;55292;51.844;19.246;2023-07-30T03:59:08;17.70;99.90
32728;DHT22;55292;51.844;19.246;2023-07-30T04:04:11;17.80;99.90
32728;DHT22;55292;51.844;19.246;2023-07-30T04:09:13;17.80;99.90
32728;DHT22;55292;51.844;19.246;2023-07-30T04:14:16;17.90;99.90
32728;DHT22;55292;51.844;19.246;2023-07-30T04:19:19;18.10;99.90
32728;DHT22;55292;51.844;19.246;2023-07-30T04:24:21;18.10;99.90
32728;DHT22;55292;51.844;19.246;2023-07-30T04:29:24;18.10;99.90
32728;DHT22;55292;51.844;19.246;2023-07-30T04:34:27;18.20;99.90
32728;DHT22;55292;51.844;19.246;2023-07-30T04:39:32;18.20;99.90
32728;DHT22;55292;51.844;19.246;2023-07-30T04:44:35;18.30;99.90
32728;DHT22;55292;51.844;19.246;2023-07-30T04:49:45;18.40;99.90
32728;DHT22;55292;51.844;19.246;2023-07-30T04:54:47;18.40;99.90
32728;DHT22;55292;51.844;19.246;2023-07-30T04:59:50;18.50;99.90
32728;DHT22;55292;51.844;19.246;2023-07-30T05:04:53;18.60;99.90
32728;DHT22;55292;51.844;19.246;2023-07-30T05:09:55;18.70;99.90
32728;DHT22;55292;51.844;19.246;2023-07-30T05:14:58;18.60;99.90
32728;DHT22;55292;51.844;19.246;2023-07-30T05:20:01;18.50;99.90
32728;DHT22;55292;51.844;19.246;2023-07-30T05:25:04;18.50;99.90
32728;DHT22;55292;51.844;19.246;2023-07-30T05:30:07;18.50;99.90
32728;DHT22;55292;51.844;19.246;2023-07-30T05:35:10;18.50;99.90
32728;DHT22;55292;51.844;19.246;2023-07-30T05:40:13;18.40;99.90
32728;DHT22;55292;51.844;19.246;2023-07-30T05:45:15;18.50;99.90
32728;DHT22;55292;51.844;19.246;2023-07-30T05:50:18;18.60;99.90
32728;DHT22;55292;51.844;19.246;2023-07-30T05:55:21;18.60;99.90
32728;DHT22;55292;51.844;19.246;2023-07-30T06:00:23;18.60;99.90
32728;DHT22;55292;51.844;19.246;2023-07-30T06:05:26;18.90;99.90
32728;DHT22;55292;51.844;19.246;2023-07-30T06:10:29;19.00;99.90
32728;DHT22;55292;51.844;19.246;2023-07-30T06:15:32;19.00;99.90
32728;DHT22;55292;51.844;19.246;2023-07-30T06:20:35;18.90;99.90
32728;DHT22;55292;51.844;19.246;2023-07-30T06:25:38;19.20;99.90
32728;DHT22;55292;51.844;19.246;2023-07-30T06:30:41;19.60;99.90
32728;DHT22;55292;51.844;19.246;2023-07-30T06:35:43;19.70;99.90
32728;DHT22;55292;51.844;19.246;2023-07-30T06:40:46;21.10;99.90
32728;DHT22;55292;51.844;19.246;2023-07-30T06:45:49;19.40;99.90
32728;DHT22;55292;51.844;19.246;2023-07-30T06:50:52;19.40;99.90
32728;DHT22;55292;51.844;19.246;2023-07-30T06:55:54;20.00;99.90
32728;DHT22;55292;51.844;19.246;2023-07-30T07:00:59;20.30;99.90
32728;DHT22;55292;51.844;19.246;2023-07-30T07:06:02;20.70;99.90
32728;DHT22;55292;51.844;19.246;2023-07-30T07:11:04;21.20;99.90
32728;DHT22;55292;51.844;19.246;2023-07-30T07:16:07;21.50;99.90
32728;DHT22;55292;51.844;19.246;2023-07-30T07:21:10;21.80;99.90
32728;DHT22;55292;51.844;19.246;2023-07-30T07:26:13;22.50;99.90
32728;DHT22;55292;51.844;19.246;2023-07-30T07:31:16;23.00;99.90
32728;DHT22;55292;51.844;19.246;2023-07-30T07:36:18;22.90;99.90
32728;DHT22;55292;51.844;19.246;2023-07-30T07:41:21;22.40;99.90
32728;DHT22;55292;51.844;19.246;2023-07-30T07:46:24;23.00;99.90
32728;DHT22;55292;51.844;19.246;2023-07-30T07:51:28;23.60;99.90
32728;DHT22;55292;51.844;19.246;2023-07-30T07:56:31;23.70;99.90
32728;DHT22;55292;51.844;19.246;2023-07-30T08:01:34;23.50;99.90
32728;DHT22;55292;51.844;19.246;2023-07-30T08:06:37;24.00;99.90
32728;DHT22;55292;51.844;19.246;2023-07-30T08:11:40;24.20;99.90
32728;DHT22;55292;51.844;19.246;2023-07-30T08:16:42;24.00;99.90
32728;DHT22;55292;51.844;19.246;2023-07-30T08:21:45;23.80;99.90
32728;DHT22;55292;51.844;19.246;2023-07-30T08:26:48;23.50;99.90
32728;DHT22;55292;51.844;19.246;2023-07-30T08:38:06;23.60;99.90
32728;DHT22;55292;51.844;19.246;2023-07-30T08:43:08;24.80;99.90
32728;DHT22;55292;51.844;19.246;2023-07-30T08:48:11;24.40;99.90
32728;DHT22;55292;51.844;19.246;2023-07-30T08:53:14;23.00;99.90
32728;DHT22;55292;51.844;19.246;2023-07-30T08:58:17;23.30;99.90
32728;DHT22;55292;51.844;19.246;2023-07-30T09:03:26;25.00;99.90
32728;DHT22;55292;51.844;19.246;2023-07-30T09:08:30;25.00;99.90
32728;DHT22;55292;51.844;19.246;2023-07-30T09:13:41;24.50;99.90
32728;DHT22;55292;51.844;19.246;2023-07-30T09:18:45;24.20;99.90
32728;DHT22;55292;51.844;19.246;2023-07-30T09:23:49;25.00;99.90
32728;DHT22;55292;51.844;19.246;2023-07-30T09:28:52;25.10;99.90
32728;DHT22;55292;51.844;19.246;2023-07-30T09:33:57;25.10;99.90
32728;DHT22;55292;51.844;19.246;2023-07-30T09:39:00;25.50;99.90
32728;DHT22;55292;51.844;19.246;2023-07-30T09:44:03;23.90;99.90
32728;DHT22;55292;51.844;19.246;2023-07-30T09:49:07;24.70;99.90
32728;DHT22;55292;51.844;19.246;2023-07-30T09:54:12;25.10;99.90
32728;DHT22;55292;51.844;19.246;2023-07-30T09:59:15;25.30;99.90
32728;DHT22;55292;51.844;19.246;2023-07-30T10:04:19;25.40;99.90
32728;DHT22;55292;51.844;19.246;2023-07-30T10:09:23;25.80;99.90
32728;DHT22;55292;51.844;19.246;2023-07-30T10:14:28;25.40;99.90
32728;DHT22;55292;51.844;19.246;2023-07-30T10:19:31;24.70;99.90
32728;DHT22;55292;51.844;19.246;2023-07-30T10:24:34;24.90;99.90
32728;DHT22;55292;51.844;19.246;2023-07-30T10:29:40;25.50;99.90
32728;DHT22;55292;51.844;19.246;2023-07-30T10:34:47;25.70;99.90
32728;DHT22;55292;51.844;19.246;2023-07-30T10:39:50;26.10;99.90
32728;DHT22;55292;51.844;19.246;2023-07-30T10:44:57;26.00;99.90
32728;DHT22;55292;51.844;19.246;2023-07-30T10:50:03;25.80;99.90
32728;DHT22;55292;51.844;19.246;2023-07-30T10:55:07;25.90;99.90
32728;DHT22;55292;51.844;19.246;2023-07-30T11:00:10;26.20;98.20
32728;DHT22;55292;51.844;19.246;2023-07-30T11:05:14;26.10;98.80
32728;DHT22;55292;51.844;19.246;2023-07-30T11:10:17;26.40;97.60
32728;DHT22;55292;51.844;19.246;2023-07-30T11:15:20;27.10;95.80
32728;DHT22;55292;51.844;19.246;2023-07-30T11:20:26;27.30;95.60
32728;DHT22;55292;51.844;19.246;2023-07-30T11:25:29;27.40;92.80
32728;DHT22;55292;51.844;19.246;2023-07-30T11:30:32;27.30;93.30
32728;DHT22;55292;51.844;19.246;2023-07-30T11:35:35;27.50;90.70
32728;DHT22;55292;51.844;19.246;2023-07-30T11:40:38;27.50;92.10
32728;DHT22;55292;51.844;19.246;2023-07-30T11:45:41;28.10;88.20
32728;DHT22;55292;51.844;19.246;2023-07-30T11:50:49;27.70;87.50
32728;DHT22;55292;51.844;19.246;2023-07-30T11:55:52;28.00;87.20
32728;DHT22;55292;51.844;19.246;2023-07-30T12:00:54;28.20;85.20
32728;DHT22;55292;51.844;19.246;2023-07-30T12:05:57;27.90;82.80
32728;DHT22;55292;51.844;19.246;2023-07-30T12:11:03;27.80;85.10
32728;DHT22;55292;51.844;19.246;2023-07-30T12:16:06;27.50;85.00
32728;DHT22;55292;51.844;19.246;2023-07-30T12:21:09;27.00;88.50
32728;DHT22;55292;51.844;19.246;2023-07-30T12:26:13;27.50;84.10
32728;DHT22;55292;51.844;19.246;2023-07-30T12:31:16;27.40;84.30
32728;DHT22;55292;51.844;19.246;2023-07-30T12:36:19;28.60;80.40
32728;DHT22;55292;51.844;19.246;2023-07-30T12:41:21;29.50;79.50
32728;DHT22;55292;51.844;19.246;2023-07-30T12:46:28;29.60;78.20
32728;DHT22;55292;51.844;19.246;2023-07-30T12:51:33;29.40;76.70
32728;DHT22;55292;51.844;19.246;2023-07-30T12:56:36;28.70;76.70
32728;DHT22;55292;51.844;19.246;2023-07-30T13:01:39;28.10;77.50
32728;DHT22;55292;51.844;19.246;2023-07-30T13:06:45;27.50;77.90
32728;DHT22;55292;51.844;19.246;2023-07-30T13:11:48;27.20;80.80
32728;DHT22;55292;51.844;19.246;2023-07-30T13:16:51;27.80;81.00
32728;DHT22;55292;51.844;19.246;2023-07-30T13:21:53;28.40;77.00
32728;DHT22;55292;51.844;19.246;2023-07-30T13:26:56;28.60;75.30
32728;DHT22;55292;51.844;19.246;2023-07-30T13:31:59;28.50;75.40
32728;DHT22;55292;51.844;19.246;2023-07-30T13:37:01;28.60;76.40
32728;DHT22;55292;51.844;19.246;2023-07-30T13:42:04;28.60;75.20
32728;DHT22;55292;51.844;19.246;2023-07-30T13:47:07;28.30;72.80
32728;DHT22;55292;51.844;19.246;2023-07-30T13:52:10;28.30;76.50
32728;DHT22;55292;51.844;19.246;2023-07-30T13:57:24;27.90;76.10
32728;DHT22;55292;51.844;19.246;2023-07-30T14:02:27;28.00;75.20
32728;DHT22;55292;51.844;19.246;2023-07-30T14:07:31;27.80;77.20
32728;DHT22;55292;51.844;19.246;2023-07-30T14:12:33;27.60;77.60
32728;DHT22;55292;51.844;19.246;2023-07-30T14:17:36;27.40;75.90
32728;DHT22;55292;51.844;19.246;2023-07-30T14:22:39;27.00;75.50
32728;DHT22;55292;51.844;19.246;2023-07-30T14:27:41;25.60;73.30
32728;DHT22;55292;51.844;19.246;2023-07-30T14:32:44;26.90;77.70
32728;DHT22;55292;51.844;19.246;2023-07-30T14:37:47;27.10;75.00
32728;DHT22;55292;51.844;19.246;2023-07-30T14:42:50;26.90;75.30
32728;DHT22;55292;51.844;19.246;2023-07-30T14:47:52;26.90;76.50
32728;DHT22;55292;51.844;19.246;2023-07-30T14:52:55;27.00;76.20
32728;DHT22;55292;51.844;19.246;2023-07-30T14:57:58;27.10;77.80
32728;DHT22;55292;51.844;19.246;2023-07-30T15:03:03;27.20;77.10
32728;DHT22;55292;51.844;19.246;2023-07-30T15:08:07;26.90;77.70
32728;DHT22;55292;51.844;19.246;2023-07-30T15:13:10;27.00;76.00
32728;DHT22;55292;51.844;19.246;2023-07-30T15:18:13;27.00;77.60
32728;DHT22;55292;51.844;19.246;2023-07-30T15:23:15;26.90;76.50
32728;DHT22;55292;51.844;19.246;2023-07-30T15:28:19;27.10;76.70
32728;DHT22;55292;51.844;19.246;2023-07-30T15:33:21;27.40;76.10
32728;DHT22;55292;51.844;19.246;2023-07-30T15:38:24;28.00;74.70
32728;DHT22;55292;51.844;19.246;2023-07-30T15:43:27;28.20;73.30
32728;DHT22;55292;51.844;19.246;2023-07-30T15:48:31;27.70;74.30
32728;DHT22;55292;51.844;19.246;2023-07-30T15:53:33;27.60;74.50
32728;DHT22;55292;51.844;19.246;2023-07-30T15:58:36;27.30;75.00
32728;DHT22;55292;51.844;19.246;2023-07-30T16:03:39;27.00;76.90
32728;DHT22;55292;51.844;19.246;2023-07-30T16:08:42;26.60;76.20
32728;DHT22;55292;51.844;19.246;2023-07-30T16:13:45;26.00;79.60
32728;DHT22;55292;51.844;19.246;2023-07-30T16:18:48;25.60;83.70
32728;DHT22;55292;51.844;19.246;2023-07-30T16:23:51;25.30;83.70
32728;DHT22;55292;51.844;19.246;2023-07-30T16:28:53;24.80;83.80
32728;DHT22;55292;51.844;19.246;2023-07-30T16:33:56;24.80;85.30
32728;DHT22;55292;51.844;19.246;2023-07-30T16:38:59;24.50;85.30
32728;DHT22;55292;51.844;19.246;2023-07-30T16:44:02;24.40;86.40
32728;DHT22;55292;51.844;19.246;2023-07-30T16:49:04;24.20;86.20
32728;DHT22;55292;51.844;19.246;2023-07-30T16:54:07;24.10;87.30
32728;DHT22;55292;51.844;19.246;2023-07-30T16:59:12;24.10;87.40
32728;DHT22;55292;51.844;19.246;2023-07-30T17:04:17;24.00;90.00
32728;DHT22;55292;51.844;19.246;2023-07-30T17:09:20;23.90;90.40
32728;DHT22;55292;51.844;19.246;2023-07-30T17:14:24;23.80;90.90
32728;DHT22;55292;51.844;19.246;2023-07-30T17:19:27;23.60;91.00
32728;DHT22;55292;51.844;19.246;2023-07-30T17:24:33;23.40;90.70
32728;DHT22;55292;51.844;19.246;2023-07-30T17:29:36;23.20;91.30
32728;DHT22;55292;51.844;19.246;2023-07-30T17:34:39;23.10;91.90
32728;DHT22;55292;51.844;19.246;2023-07-30T17:39:42;22.90;92.30
32728;DHT22;55292;51.844;19.246;2023-07-30T17:44:49;22.70;92.50
32728;DHT22;55292;51.844;19.246;2023-07-30T17:49:55;22.40;93.10
32728;DHT22;55292;51.844;19.246;2023-07-30T17:54:58;22.00;93.10
32728;DHT22;55292;51.844;19.246;2023-07-30T18:00:07;21.80;92.40
32728;DHT22;55292;51.844;19.246;2023-07-30T18:05:13;21.60;93.00
32728;DHT22;55292;51.844;19.246;2023-07-30T18:10:21;21.30;92.60
32728;DHT22;55292;51.844;19.246;2023-07-30T18:15:24;20.90;93.20
32728;DHT22;55292;51.844;19.246;2023-07-30T18:20:27;20.30;95.30
32728;DHT22;55292;51.844;19.246;2023-07-30T18:25:30;20.00;96.40
32728;DHT22;55292;51.844;19.246;2023-07-30T18:30:38;19.70;97.70
32728;DHT22;55292;51.844;19.246;2023-07-30T18:35:41;19.50;99.00
32728;DHT22;55292;51.844;19.246;2023-07-30T18:40:43;19.20;99.90
32728;DHT22;55292;51.844;19.246;2023-07-30T18:45:46;18.80;99.90
32728;DHT22;55292;51.844;19.246;2023-07-30T18:50:50;18.50;99.90
32728;DHT22;55292;51.844;19.246;2023-07-30T19:00:56;18.30;99.90
32728;DHT22;55292;51.844;19.246;2023-07-30T19:05:59;18.20;99.90
32728;DHT22;55292;51.844;19.246;2023-07-30T19:11:04;18.10;99.90
32728;DHT22;55292;51.844;19.246;2023-07-30T19:16:06;17.90;99.90
32728;DHT22;55292;51.844;19.246;2023-07-30T19:21:09;17.70;99.90
32728;DHT22;55292;51.844;19.246;2023-07-30T19:26:12;17.70;99.90
32728;DHT22;55292;51.844;19.246;2023-07-30T19:31:15;17.60;99.90
32728;DHT22;55292;51.844;19.246;2023-07-30T19:36:18;17.50;99.90
32728;DHT22;55292;51.844;19.246;2023-07-30T19:41:21;17.30;99.90
32728;DHT22;55292;51.844;19.246;2023-07-30T19:46:29;17.20;99.90
32728;DHT22;55292;51.844;19.246;2023-07-30T19:51:36;17.20;99.90
32728;DHT22;55292;51.844;19.246;2023-07-30T19:56:38;17.00;99.90
32728;DHT22;55292;51.844;19.246;2023-07-30T20:01:45;16.90;99.90
32728;DHT22;55292;51.844;19.246;2023-07-30T20:06:47;16.90;99.90
32728;DHT22;55292;51.844;19.246;2023-07-30T20:11:53;17.00;99.90
32728;DHT22;55292;51.844;19.246;2023-07-30T20:16:56;17.00;99.90
32728;DHT22;55292;51.844;19.246;2023-07-30T20:21:58;16.90;99.90
32728;DHT22;55292;51.844;19.246;2023-07-30T20:27:01;16.70;99.90
32728;DHT22;55292;51.844;19.246;2023-07-30T20:32:04;16.70;99.90
32728;DHT22;55292;51.844;19.246;2023-07-30T20:37:07;16.70;99.90
32728;DHT22;55292;51.844;19.246;2023-07-30T20:42:10;16.60;99.90
32728;DHT22;55292;51.844;19.246;2023-07-30T20:47:12;16.50;99.90
32728;DHT22;55292;51.844;19.246;2023-07-30T20:52:15;16.30;99.90
32728;DHT22;55292;51.844;19.246;2023-07-30T20:57:18;16.30;99.90
32728;DHT22;55292;51.844;19.246;2023-07-30T21:02:21;16.20;99.90
32728;DHT22;55292;51.844;19.246;2023-07-30T21:07:23;16.10;99.90
32728;DHT22;55292;51.844;19.246;2023-07-30T21:12:26;16.10;99.90
32728;DHT22;55292;51.844;19.246;2023-07-30T21:17:29;16.00;99.90
32728;DHT22;55292;51.844;19.246;2023-07-30T21:22:32;15.90;99.90
32728;DHT22;55292;51.844;19.246;2023-07-30T21:27:35;15.90;99.90
32728;DHT22;55292;51.844;19.246;2023-07-30T21:32:38;15.80;99.90
32728;DHT22;55292;51.844;19.246;2023-07-30T21:37:41;15.80;99.90
32728;DHT22;55292;51.844;19.246;2023-07-30T21:42:43;15.80;99.90
32728;DHT22;55292;51.844;19.246;2023-07-30T21:47:47;16.00;99.90
32728;DHT22;55292;51.844;19.246;2023-07-30T21:52:54;16.00;99.90
32728;DHT22;55292;51.844;19.246;2023-07-30T21:57:57;15.90;99.90
32728;DHT22;55292;51.844;19.246;2023-07-30T22:03:00;16.00;99.90
32728;DHT22;55292;51.844;19.246;2023-07-30T22:08:03;16.20;99.90
32728;DHT22;55292;51.844;19.246;2023-07-30T22:13:06;16.40;99.90
32728;DHT22;55292;51.844;19.246;2023-07-30T22:18:09;16.50;99.90
32728;DHT22;55292;51.844;19.246;2023-07-30T22:23:11;16.60;99.90
32728;DHT22;55292;51.844;19.246;2023-07-30T22:28:14;16.60;99.90
32728;DHT22;55292;51.844;19.246;2023-07-30T22:33:17;16.70;99.90
32728;DHT22;55292;51.844;19.246;2023-07-30T22:38:20;16.70;99.90
32728;DHT22;55292;51.844;19.246;2023-07-30T22:43:23;16.70;99.90
32728;DHT22;55292;51.844;19.246;2023-07-30T22:48:26;16.80;99.90
32728;DHT22;55292;51.844;19.246;2023-07-30T22:53:29;14.70;99.90
32728;DHT22;55292;51.844;19.246;2023-07-30T22:58:31;16.80;99.90
32728;DHT22;55292;51.844;19.246;2023-07-30T23:03:35;16.90;99.90
32728;DHT22;55292;51.844;19.246;2023-07-30T23:08:37;17.00;99.90
32728;DHT22;55292;51.844;19.246;2023-07-30T23:13:42;17.00;99.90
32728;DHT22;55292;51.844;19.246;2023-07-30T23:18:44;17.10;99.90
32728;DHT22;55292;51.844;19.246;2023-07-30T23:23:47;17.00;99.90
32728;DHT22;55292;51.844;19.246;2023-07-30T23:28:50;16.80;99.90
32728;DHT22;55292;51.844;19.246;2023-07-30T23:33:53;16.70;99.90
32728;DHT22;55292;51.844;19.246;2023-07-30T23:38:56;16.50;99.90
32728;DHT22;55292;51.844;19.246;2023-07-30T23:43:59;16.50;99.90
32728;DHT22;55292;51.844;19.246;2023-07-30T23:49:01;16.50;99.90
32728;DHT22;55292;51.844;19.246;2023-07-30T23:54:04;16.70;99.90
32728;DHT22;55292;51.844;19.246;2023-07-30T23:59:07;16.80;99.90
